Aeroporto :







RITROVATECI SU...

 
LOGIN :

Iscrizione | Disclaimer

   EN    FR    IT 

 









Sommario :    VFR   VFR Marginale   IFR   IFR Intensivo   IFR Molto Intensivo
Visibilità : 
Base nubi : 
>= 8 km
>= 3000ft
5 / 8 km
1000 / 3000 ft
1500m / 5 km
500 / 1000 ft
800 / 1500m
200 / 500 ft
< 800m
< 200 ft
Simboli :   Temporali  Nebbia  Neve Forte  Precipitazioni Forti  Vento > 20 kt






- Altitudine del aeroporto : 550 ft
- Codice IATA : YOY


CYOY - C J.H.L.(Joe) Lecomte) Heliport

ULTIMO METAR :
  • 140600Z AUTO 00000KT 4SM BKN003 M20/M21 A3037 RMK SLP301

METARs OBSOLETI :
  • 140500Z AUTO 00000KT 9SM CLR M20/M22 A3036 RMK ICG PAST HR SLP299
  • 140440Z AUTO 00000KT 3SM CLR M19/M20 A3036 RMK ICG PAST HR
  • 140416Z AUTO 00000KT 5/8SM CLR M18/M19 A3035 RMK VSBY VRBL 0.2V9.+ ICG
  • 140411Z AUTO 34002KT 1 3/4SM CLR M16/M18 A3035 RMK VSBY VRBL 0.4V9.+ ICG
  • 140400Z 00000KT 15SM SCT210 M18/M19 A3035 RMK CI4 DA-3973FT LAST STFD OBS/NEXT 141400 UTC SLP292

TAF TAF CYOY
Valido dal 14 a 00 ore il 14 a 12 ore UTC


132330Z 1400/1412 31005KT P6SM FEW030
FM140800 VRB03KT P6SM FEW015 BKN100
FM141000 VRB03KT P6SM SCT006 OVC070 RMK FCST BASED ON AUTO OBS 140400-141200Z. NXT FCST BY 140600Z



MetMap, La meteo Aeronautica in un colpo d'occhio ! - Copyright ORBIFLY Dicembre 2007 - Disclaimer

ORBIFLY MET'MAP TEAM :

Programmazione e sviluppo : Alexandra Zaïnal
Concezione e sviluppo : Baudouin d'Aumeries
Co-Programmazione e sviluppo : Marc-Olivier Méhu
Supporto tecnico e logistico : Manuel Goepfert
Aiuto per la traduzione : Arnaldo La Scala

Contatto : metmap@orbifly.com




FONTI E CREDITI :

   NOAA